Schedule Details


Flight Number: CTN423
Departure: Duesseldorf (EDDL) at 10:30
Arrival: Kastela (LDSP) at 12:20
Route: DODEN Y853 BOMBI T104 WLD UM867 VAROB DCT GIMIX DCT SABAD UL862 PALEZ L862 OKLAX

Weather Information
EDDL 251420Z 19004KT 140V220 1800 BR FEW002 OVC003 03/03 Q1021 BECMG 6000 OVC006
LDSP 251430Z 10008KT 070V130 9999 SCT020 BKN040 13/10 Q1023 NOSIG
Schedule Frequency

Route Map